Forside
METAR-TAF:

METAR-TAF

Lufthavne :

Funafuti, Tuvalu

Breddekreds: 08-31S, længdekreds: 179-13E, højde: 1 m

Aktuelle vejr

Denne rapport blev lavet for 1 time og 0 minutter siden, kl. 23:00 UTC
Vind 6 kt fra øst
Temperatur 31°C
Fugtighed 75%
Tryk 1009 hPa
Sigt 10 km eller mere
Nogle få skyer i en højde af 2000 ft
Spredte skyer i en højde af 11000 ft

METAR: NGFU 202300Z 08006KT 9999 FEW020 SCT110 31/26 Q1009

Tid: 12:00 (00:00 UTC)

Vejrudsigter

Denne rapport blev lavet for 41 minutter siden, kl. 23:19 UTC
Foreløbig gælder fra 21 på 00 UTC til 21 på 24 UTC
Vind 8 kt fra østnordøst
Sigt 10 km eller mere
Nogle få skyer i en højde af 2000 ft
Spredte skyer i en højde af 10000 ft
let regnbyger
Sandsynlighed 30% :
Midlertidig
fra 21 på 00 UTC til 21 på 12 UTC
Sigt: 3000 m
Brudte skyer i en højde af 1600 ft
Nogle få skyer i en højde af 1700 ft, Cumulonimbus.
tordenbyger, regn

TAF: NGFU 202319Z 2100/2124 07008KT 9999 -SHRA FEW020 SCT100 PROB30 TEMPO 2100/2112 3000 TSRA BKN016 FEW017CB

Vejrobservationer og prognoser fra mere end 4000 lufthavne (METAR og TAF).

De gule og røde prikker repræsenterer de meteorologiske stationer.

Flyt musen over at se navnet på stationen.

Så klik over at se vejr observationer og prognoser.

At skifte det kort: Klik på de grønne knapper med et sort kors for at zoome ind; på den grønne knap med en bindestreg for at zoome ud; eller på de grønne pile for tilstødende kort.


METAR-TAF: